sensor_id;sensor_type;location;lat;lon;timestamp;pressure;altitude;pressure_sealevel;temperature;humidity
23677;BME280;31493;49.058;12.190;2024-03-08T00:01:48;96217.75;;;0.10;100.00
23677;BME280;31493;49.058;12.190;2024-03-08T00:04:15;96219.75;;;0.00;100.00
23677;BME280;31493;49.058;12.190;2024-03-08T00:06:42;96214.69;;;-0.01;100.00
23677;BME280;31493;49.058;12.190;2024-03-08T00:09:11;96217.91;;;0.05;100.00
23677;BME280;31493;49.058;12.190;2024-03-08T00:11:40;96207.47;;;0.13;100.00
23677;BME280;31493;49.058;12.190;2024-03-08T00:14:07;96207.31;;;0.19;100.00
23677;BME280;31493;49.058;12.190;2024-03-08T00:16:34;96209.09;;;0.16;100.00
23677;BME280;31493;49.058;12.190;2024-03-08T00:19:01;96203.09;;;0.18;100.00
23677;BME280;31493;49.058;12.190;2024-03-08T00:21:28;96198.28;;;0.07;100.00
23677;BME280;31493;49.058;12.190;2024-03-08T00:23:55;96195.09;;;0.01;100.00
23677;BME280;31493;49.058;12.190;2024-03-08T00:26:22;96194.06;;;0.06;100.00
23677;BME280;31493;49.058;12.190;2024-03-08T00:28:50;96190.88;;;-0.00;100.00
23677;BME280;31493;49.058;12.190;2024-03-08T00:31:17;96187.22;;;0.08;100.00
23677;BME280;31493;49.058;12.190;2024-03-08T00:33:44;96180.63;;;0.01;100.00
23677;BME280;31493;49.058;12.190;2024-03-08T00:36:11;96185.38;;;0.14;100.00
23677;BME280;31493;49.058;12.190;2024-03-08T00:38:38;96186.25;;;0.13;100.00
23677;BME280;31493;49.058;12.190;2024-03-08T00:41:04;96181.09;;;0.14;100.00
23677;BME280;31493;49.058;12.190;2024-03-08T00:43:31;96180.28;;;0.14;100.00
23677;BME280;31493;49.058;12.190;2024-03-08T00:46:00;96178.50;;;0.16;100.00
23677;BME280;31493;49.058;12.190;2024-03-08T00:48:27;96175.69;;;0.25;100.00
23677;BME280;31493;49.058;12.190;2024-03-08T00:50:54;96170.72;;;0.20;100.00
23677;BME280;31493;49.058;12.190;2024-03-08T00:53:21;96164.91;;;0.15;100.00
23677;BME280;31493;49.058;12.190;2024-03-08T00:55:48;96160.66;;;0.16;100.00
23677;BME280;31493;49.058;12.190;2024-03-08T00:58:15;96170.31;;;0.06;100.00
23677;BME280;31493;49.058;12.190;2024-03-08T01:00:43;96162.72;;;0.03;100.00
23677;BME280;31493;49.058;12.190;2024-03-08T01:03:11;96160.75;;;0.13;100.00
23677;BME280;31493;49.058;12.190;2024-03-08T01:05:38;96165.09;;;0.09;100.00
23677;BME280;31493;49.058;12.190;2024-03-08T01:08:06;96157.31;;;0.14;100.00
23677;BME280;31493;49.058;12.190;2024-03-08T01:10:33;96158.44;;;0.05;100.00
23677;BME280;31493;49.058;12.190;2024-03-08T01:13:00;96163.19;;;0.17;100.00
23677;BME280;31493;49.058;12.190;2024-03-08T01:15:27;96146.19;;;0.16;100.00
23677;BME280;31493;49.058;12.190;2024-03-08T01:17:54;96157.38;;;0.12;100.00
23677;BME280;31493;49.058;12.190;2024-03-08T01:20:23;96154.00;;;0.12;100.00
23677;BME280;31493;49.058;12.190;2024-03-08T01:22:50;96149.97;;;0.04;100.00
23677;BME280;31493;49.058;12.190;2024-03-08T01:25:17;96140.66;;;0.02;100.00
23677;BME280;31493;49.058;12.190;2024-03-08T01:27:44;96135.63;;;0.00;100.00
23677;BME280;31493;49.058;12.190;2024-03-08T01:30:11;96140.78;;;-0.01;100.00
23677;BME280;31493;49.058;12.190;2024-03-08T01:32:39;96130.47;;;0.02;100.00
23677;BME280;31493;49.058;12.190;2024-03-08T01:35:06;96137.88;;;0.10;100.00
23677;BME280;31493;49.058;12.190;2024-03-08T01:37:36;96136.13;;;0.12;100.00
23677;BME280;31493;49.058;12.190;2024-03-08T01:40:04;96125.84;;;0.15;100.00
23677;BME280;31493;49.058;12.190;2024-03-08T01:42:32;96123.59;;;0.04;100.00
23677;BME280;31493;49.058;12.190;2024-03-08T01:44:59;96106.97;;;-0.37;100.00
23677;BME280;31493;49.058;12.190;2024-03-08T01:47:26;96114.56;;;-0.67;100.00
23677;BME280;31493;49.058;12.190;2024-03-08T01:49:54;96112.25;;;-0.75;100.00
23677;BME280;31493;49.058;12.190;2024-03-08T01:52:21;96112.56;;;-0.56;100.00
23677;BME280;31493;49.058;12.190;2024-03-08T01:54:50;96107.22;;;-0.47;100.00
23677;BME280;31493;49.058;12.190;2024-03-08T01:57:18;96107.63;;;-0.31;100.00
23677;BME280;31493;49.058;12.190;2024-03-08T01:59:45;96091.34;;;-0.27;100.00
23677;BME280;31493;49.058;12.190;2024-03-08T02:02:14;96088.63;;;-0.21;100.00
23677;BME280;31493;49.058;12.190;2024-03-08T02:04:45;96093.66;;;-0.17;100.00
23677;BME280;31493;49.058;12.190;2024-03-08T02:07:12;96090.78;;;-0.07;100.00
23677;BME280;31493;49.058;12.190;2024-03-08T02:09:39;96103.63;;;-0.10;100.00
23677;BME280;31493;49.058;12.190;2024-03-08T02:12:08;96090.78;;;-0.07;100.00
23677;BME280;31493;49.058;12.190;2024-03-08T02:14:35;96094.41;;;-0.14;100.00
23677;BME280;31493;49.058;12.190;2024-03-08T02:17:02;96090.94;;;-0.11;100.00
23677;BME280;31493;49.058;12.190;2024-03-08T02:19:30;96090.53;;;-0.27;100.00
23677;BME280;31493;49.058;12.190;2024-03-08T02:22:00;96090.56;;;-0.58;100.00
23677;BME280;31493;49.058;12.190;2024-03-08T02:24:30;96080.00;;;-0.76;100.00
23677;BME280;31493;49.058;12.190;2024-03-08T02:26:57;96093.66;;;-0.78;100.00
23677;BME280;31493;49.058;12.190;2024-03-08T02:29:24;96081.19;;;-0.87;100.00
23677;BME280;31493;49.058;12.190;2024-03-08T02:31:51;96081.25;;;-0.90;100.00
23677;BME280;31493;49.058;12.190;2024-03-08T02:34:18;96077.03;;;-0.91;100.00
23677;BME280;31493;49.058;12.190;2024-03-08T02:36:45;96074.41;;;-0.88;100.00
23677;BME280;31493;49.058;12.190;2024-03-08T02:39:14;96072.78;;;-0.91;100.00
23677;BME280;31493;49.058;12.190;2024-03-08T02:41:41;96070.69;;;-0.77;100.00
23677;BME280;31493;49.058;12.190;2024-03-08T02:44:08;96071.91;;;-0.59;100.00
23677;BME280;31493;49.058;12.190;2024-03-08T02:46:36;96062.09;;;-0.73;100.00
23677;BME280;31493;49.058;12.190;2024-03-08T02:49:03;96071.66;;;-0.81;100.00
23677;BME280;31493;49.058;12.190;2024-03-08T02:51:30;96060.06;;;-0.91;100.00
23677;BME280;31493;49.058;12.190;2024-03-08T02:53:57;96062.00;;;-1.01;100.00
23677;BME280;31493;49.058;12.190;2024-03-08T02:56:25;96070.28;;;-0.92;100.00
23677;BME280;31493;49.058;12.190;2024-03-08T02:58:52;96065.47;;;-1.03;100.00
23677;BME280;31493;49.058;12.190;2024-03-08T03:01:19;96062.47;;;-0.86;100.00
23677;BME280;31493;49.058;12.190;2024-03-08T03:03:48;96058.28;;;-0.89;100.00
23677;BME280;31493;49.058;12.190;2024-03-08T03:06:15;96059.22;;;-0.91;100.00
23677;BME280;31493;49.058;12.190;2024-03-08T03:08:42;96058.97;;;-0.82;100.00
23677;BME280;31493;49.058;12.190;2024-03-08T03:11:11;96062.53;;;-0.57;100.00
23677;BME280;31493;49.058;12.190;2024-03-08T03:13:40;96058.00;;;-0.78;100.00
23677;BME280;31493;49.058;12.190;2024-03-08T03:16:08;96059.88;;;-0.54;100.00
23677;BME280;31493;49.058;12.190;2024-03-08T03:18:36;96060.88;;;-0.59;100.00
23677;BME280;31493;49.058;12.190;2024-03-08T03:21:03;96053.28;;;-0.61;100.00
23677;BME280;31493;49.058;12.190;2024-03-08T03:23:33;96049.06;;;-0.62;100.00
23677;BME280;31493;49.058;12.190;2024-03-08T03:26:00;96050.91;;;-0.67;100.00
23677;BME280;31493;49.058;12.190;2024-03-08T03:28:28;96051.63;;;-0.62;100.00
23677;BME280;31493;49.058;12.190;2024-03-08T03:30:56;96049.91;;;-0.61;100.00
23677;BME280;31493;49.058;12.190;2024-03-08T03:33:24;96041.63;;;-0.69;100.00
23677;BME280;31493;49.058;12.190;2024-03-08T03:35:51;96044.63;;;-0.55;100.00
23677;BME280;31493;49.058;12.190;2024-03-08T03:38:18;96045.53;;;-0.58;100.00
23677;BME280;31493;49.058;12.190;2024-03-08T03:40:49;96053.34;;;-0.62;100.00
23677;BME280;31493;49.058;12.190;2024-03-08T03:43:18;96037.25;;;-0.64;100.00
23677;BME280;31493;49.058;12.190;2024-03-08T03:45:45;96042.25;;;-0.61;100.00
23677;BME280;31493;49.058;12.190;2024-03-08T03:48:13;96047.25;;;-0.57;100.00
23677;BME280;31493;49.058;12.190;2024-03-08T03:50:40;96042.00;;;-0.52;100.00
23677;BME280;31493;49.058;12.190;2024-03-08T03:53:08;96043.81;;;-0.56;100.00
23677;BME280;31493;49.058;12.190;2024-03-08T03:55:35;96045.19;;;-0.46;100.00
23677;BME280;31493;49.058;12.190;2024-03-08T03:58:02;96037.19;;;-0.61;100.00
23677;BME280;31493;49.058;12.190;2024-03-08T04:00:30;96040.63;;;-0.64;100.00
23677;BME280;31493;49.058;12.190;2024-03-08T04:02:57;96029.59;;;-0.63;100.00
23677;BME280;31493;49.058;12.190;2024-03-08T04:05:27;96030.59;;;-0.68;100.00
23677;BME280;31493;49.058;12.190;2024-03-08T04:07:54;96021.44;;;-0.76;100.00
23677;BME280;31493;49.058;12.190;2024-03-08T04:10:21;96021.34;;;-0.73;100.00
23677;BME280;31493;49.058;12.190;2024-03-08T04:12:48;96025.84;;;-0.81;100.00
23677;BME280;31493;49.058;12.190;2024-03-08T04:15:15;96029.38;;;-0.86;100.00
23677;BME280;31493;49.058;12.190;2024-03-08T04:17:42;96020.78;;;-0.82;100.00
23677;BME280;31493;49.058;12.190;2024-03-08T04:20:11;96020.59;;;-0.75;100.00
23677;BME280;31493;49.058;12.190;2024-03-08T04:22:40;96026.22;;;-0.65;100.00
23677;BME280;31493;49.058;12.190;2024-03-08T04:25:08;96024.44;;;-0.61;100.00
23677;BME280;31493;49.058;12.190;2024-03-08T04:27:35;96020.72;;;-0.51;100.00
23677;BME280;31493;49.058;12.190;2024-03-08T04:30:03;96021.22;;;-0.38;100.00
23677;BME280;31493;49.058;12.190;2024-03-08T04:32:33;96009.50;;;-0.44;100.00
23677;BME280;31493;49.058;12.190;2024-03-08T04:35:00;96014.38;;;-0.66;100.00
23677;BME280;31493;49.058;12.190;2024-03-08T04:37:29;96007.97;;;-0.50;100.00
23677;BME280;31493;49.058;12.190;2024-03-08T04:39:57;96009.81;;;-0.55;100.00
23677;BME280;31493;49.058;12.190;2024-03-08T04:42:24;96009.09;;;-0.60;100.00
23677;BME280;31493;49.058;12.190;2024-03-08T04:44:52;96009.47;;;-0.72;100.00
23677;BME280;31493;49.058;12.190;2024-03-08T04:47:19;96012.59;;;-0.62;100.00
23677;BME280;31493;49.058;12.190;2024-03-08T04:49:46;96005.44;;;-0.79;100.00
23677;BME280;31493;49.058;12.190;2024-03-08T04:52:13;96002.59;;;-0.70;100.00
23677;BME280;31493;49.058;12.190;2024-03-08T04:54:40;96008.22;;;-0.59;100.00
23677;BME280;31493;49.058;12.190;2024-03-08T04:57:08;96012.88;;;-0.73;100.00
23677;BME280;31493;49.058;12.190;2024-03-08T04:59:36;96001.09;;;-0.77;100.00
23677;BME280;31493;49.058;12.190;2024-03-08T05:02:03;95995.66;;;-0.65;100.00
23677;BME280;31493;49.058;12.190;2024-03-08T05:04:30;96003.41;;;-0.68;100.00
23677;BME280;31493;49.058;12.190;2024-03-08T05:06:58;95995.91;;;-0.73;100.00
23677;BME280;31493;49.058;12.190;2024-03-08T05:09:27;96008.50;;;-0.68;100.00
23677;BME280;31493;49.058;12.190;2024-03-08T05:11:55;95993.06;;;-0.63;100.00
23677;BME280;31493;49.058;12.190;2024-03-08T05:14:23;95996.66;;;-0.69;100.00
23677;BME280;31493;49.058;12.190;2024-03-08T05:16:50;96000.75;;;-0.65;100.00
23677;BME280;31493;49.058;12.190;2024-03-08T05:19:19;95995.31;;;-0.82;100.00
23677;BME280;31493;49.058;12.190;2024-03-08T05:21:47;95998.34;;;-0.69;100.00
23677;BME280;31493;49.058;12.190;2024-03-08T05:24:14;95994.94;;;-0.68;100.00
23677;BME280;31493;49.058;12.190;2024-03-08T05:26:42;95992.63;;;-0.78;100.00
23677;BME280;31493;49.058;12.190;2024-03-08T05:29:09;95991.03;;;-0.82;100.00
23677;BME280;31493;49.058;12.190;2024-03-08T05:31:46;95989.22;;;-0.77;100.00
23677;BME280;31493;49.058;12.190;2024-03-08T05:34:13;95981.81;;;-0.84;100.00
23677;BME280;31493;49.058;12.190;2024-03-08T05:36:40;95992.69;;;-0.79;100.00
23677;BME280;31493;49.058;12.190;2024-03-08T05:39:10;95996.84;;;-0.77;100.00
23677;BME280;31493;49.058;12.190;2024-03-08T05:41:37;96001.88;;;-0.74;100.00
23677;BME280;31493;49.058;12.190;2024-03-08T05:44:05;95991.03;;;-0.80;100.00
23677;BME280;31493;49.058;12.190;2024-03-08T05:46:32;95985.72;;;-0.73;100.00
23677;BME280;31493;49.058;12.190;2024-03-08T05:49:00;95985.78;;;-0.76;100.00
23677;BME280;31493;49.058;12.190;2024-03-08T05:51:31;95986.66;;;-0.77;100.00
23677;BME280;31493;49.058;12.190;2024-03-08T05:54:00;95980.03;;;-0.82;100.00
23677;BME280;31493;49.058;12.190;2024-03-08T05:56:28;95983.41;;;-0.82;100.00
23677;BME280;31493;49.058;12.190;2024-03-08T05:58:55;95976.28;;;-0.69;100.00
23677;BME280;31493;49.058;12.190;2024-03-08T06:01:23;95979.66;;;-0.68;100.00
23677;BME280;31493;49.058;12.190;2024-03-08T06:03:50;95983.94;;;-0.70;100.00
23677;BME280;31493;49.058;12.190;2024-03-08T06:06:21;95972.31;;;-0.79;100.00
23677;BME280;31493;49.058;12.190;2024-03-08T06:08:49;95986.31;;;-0.64;100.00
23677;BME280;31493;49.058;12.190;2024-03-08T06:11:17;95982.22;;;-0.68;100.00
23677;BME280;31493;49.058;12.190;2024-03-08T06:13:44;95979.47;;;-0.62;100.00
23677;BME280;31493;49.058;12.190;2024-03-08T06:16:11;95967.22;;;-0.79;100.00
23677;BME280;31493;49.058;12.190;2024-03-08T06:18:38;95966.81;;;-0.65;100.00
23677;BME280;31493;49.058;12.190;2024-03-08T06:21:05;95970.47;;;-0.44;100.00
23677;BME280;31493;49.058;12.190;2024-03-08T06:23:34;95979.84;;;-0.47;100.00
23677;BME280;31493;49.058;12.190;2024-03-08T06:26:04;95972.03;;;-0.40;100.00
23677;BME280;31493;49.058;12.190;2024-03-08T06:28:31;95980.69;;;-0.46;100.00
23677;BME280;31493;49.058;12.190;2024-03-08T06:30:58;95981.31;;;-0.39;100.00
23677;BME280;31493;49.058;12.190;2024-03-08T06:33:25;95970.13;;;-0.34;100.00
23677;BME280;31493;49.058;12.190;2024-03-08T06:35:53;95969.16;;;-0.30;100.00
23677;BME280;31493;49.058;12.190;2024-03-08T06:38:22;95976.22;;;-0.11;100.00
23677;BME280;31493;49.058;12.190;2024-03-08T06:40:51;95972.28;;;-0.22;100.00
23677;BME280;31493;49.058;12.190;2024-03-08T06:43:18;95966.72;;;-0.06;100.00
23677;BME280;31493;49.058;12.190;2024-03-08T06:45:45;95969.53;;;-0.14;100.00
23677;BME280;31493;49.058;12.190;2024-03-08T06:48:14;95973.69;;;-0.11;100.00
23677;BME280;31493;49.058;12.190;2024-03-08T06:50:43;95974.19;;;-0.00;100.00
23677;BME280;31493;49.058;12.190;2024-03-08T06:53:10;95973.03;;;0.08;100.00
23677;BME280;31493;49.058;12.190;2024-03-08T06:55:37;95963.72;;;0.07;100.00
23677;BME280;31493;49.058;12.190;2024-03-08T06:58:06;95971.56;;;0.01;100.00
23677;BME280;31493;49.058;12.190;2024-03-08T07:00:33;95971.13;;;0.15;100.00
23677;BME280;31493;49.058;12.190;2024-03-08T07:03:00;95968.38;;;0.21;100.00
23677;BME280;31493;49.058;12.190;2024-03-08T07:05:28;95965.72;;;0.24;100.00
23677;BME280;31493;49.058;12.190;2024-03-08T07:07:55;95958.56;;;0.36;100.00
23677;BME280;31493;49.058;12.190;2024-03-08T07:10:22;95957.47;;;0.43;100.00
23677;BME280;31493;49.058;12.190;2024-03-08T07:12:50;95966.16;;;0.37;100.00
23677;BME280;31493;49.058;12.190;2024-03-08T07:15:18;95952.47;;;0.40;100.00
23677;BME280;31493;49.058;12.190;2024-03-08T07:17:46;95961.69;;;0.44;100.00
23677;BME280;31493;49.058;12.190;2024-03-08T07:20:14;95945.28;;;0.51;100.00
23677;BME280;31493;49.058;12.190;2024-03-08T07:22:44;95953.50;;;0.59;100.00
23677;BME280;31493;49.058;12.190;2024-03-08T07:25:13;95954.16;;;0.64;100.00
23677;BME280;31493;49.058;12.190;2024-03-08T07:27:47;95951.28;;;0.50;100.00
23677;BME280;31493;49.058;12.190;2024-03-08T07:30:15;95948.19;;;0.65;100.00
23677;BME280;31493;49.058;12.190;2024-03-08T07:33:05;95949.16;;;0.86;100.00
23677;BME280;31493;49.058;12.190;2024-03-08T07:35:32;95946.78;;;1.05;100.00
23677;BME280;31493;49.058;12.190;2024-03-08T07:38:03;95942.50;;;0.82;100.00
23677;BME280;31493;49.058;12.190;2024-03-08T07:40:31;95939.72;;;0.88;100.00
23677;BME280;31493;49.058;12.190;2024-03-08T07:42:58;95945.94;;;1.28;100.00
23677;BME280;31493;49.058;12.190;2024-03-08T07:45:25;95941.16;;;1.19;100.00
23677;BME280;31493;49.058;12.190;2024-03-08T07:47:53;95951.75;;;1.31;100.00
23677;BME280;31493;49.058;12.190;2024-03-08T07:50:23;95949.53;;;1.46;100.00
23677;BME280;31493;49.058;12.190;2024-03-08T07:52:50;95937.28;;;1.76;100.00
23677;BME280;31493;49.058;12.190;2024-03-08T07:55:17;95943.88;;;1.81;100.00
23677;BME280;31493;49.058;12.190;2024-03-08T07:57:44;95938.50;;;2.09;100.00
23677;BME280;31493;49.058;12.190;2024-03-08T08:00:14;95933.91;;;2.17;100.00
23677;BME280;31493;49.058;12.190;2024-03-08T08:02:44;95923.22;;;2.08;100.00
23677;BME280;31493;49.058;12.190;2024-03-08T08:05:11;95932.13;;;2.19;100.00
23677;BME280;31493;49.058;12.190;2024-03-08T08:07:44;95930.00;;;2.29;100.00
23677;BME280;31493;49.058;12.190;2024-03-08T08:10:12;95930.22;;;2.45;100.00
23677;BME280;31493;49.058;12.190;2024-03-08T08:12:44;95929.22;;;2.47;100.00
23677;BME280;31493;49.058;12.190;2024-03-08T08:15:12;95923.03;;;2.53;100.00
23677;BME280;31493;49.058;12.190;2024-03-08T08:17:41;95933.53;;;2.86;100.00
23677;BME280;31493;49.058;12.190;2024-03-08T08:20:09;95920.59;;;2.70;100.00
23677;BME280;31493;49.058;12.190;2024-03-08T08:22:37;95928.56;;;2.83;100.00
23677;BME280;31493;49.058;12.190;2024-03-08T08:25:07;95916.84;;;2.77;100.00
23677;BME280;31493;49.058;12.190;2024-03-08T08:27:34;95931.50;;;2.74;100.00
23677;BME280;31493;49.058;12.190;2024-03-08T08:30:04;95908.63;;;2.71;100.00
23677;BME280;31493;49.058;12.190;2024-03-08T08:32:34;95918.09;;;2.69;100.00
23677;BME280;31493;49.058;12.190;2024-03-08T08:35:01;95919.72;;;2.90;100.00
23677;BME280;31493;49.058;12.190;2024-03-08T08:37:30;95910.44;;;2.88;100.00
23677;BME280;31493;49.058;12.190;2024-03-08T08:39:57;95901.53;;;2.57;100.00
23677;BME280;31493;49.058;12.190;2024-03-08T08:42:25;95907.72;;;2.91;100.00
23677;BME280;31493;49.058;12.190;2024-03-08T08:44:54;95911.19;;;2.90;100.00
23677;BME280;31493;49.058;12.190;2024-03-08T08:47:23;95886.69;;;2.84;100.00
23677;BME280;31493;49.058;12.190;2024-03-08T08:49:50;95909.28;;;2.95;100.00
23677;BME280;31493;49.058;12.190;2024-03-08T08:52:17;95907.16;;;2.84;100.00
23677;BME280;31493;49.058;12.190;2024-03-08T08:54:44;95891.28;;;3.15;100.00
23677;BME280;31493;49.058;12.190;2024-03-08T08:57:11;95879.38;;;2.95;100.00
23677;BME280;31493;49.058;12.190;2024-03-08T08:59:41;95894.25;;;3.06;100.00
23677;BME280;31493;49.058;12.190;2024-03-08T09:02:08;95883.22;;;3.23;100.00
23677;BME280;31493;49.058;12.190;2024-03-08T09:04:35;95884.31;;;3.17;100.00
23677;BME280;31493;49.058;12.190;2024-03-08T09:07:02;95873.50;;;3.12;100.00
23677;BME280;31493;49.058;12.190;2024-03-08T09:09:32;95877.75;;;3.49;100.00
23677;BME280;31493;49.058;12.190;2024-03-08T09:11:59;95869.38;;;3.63;99.92
23677;BME280;31493;49.058;12.190;2024-03-08T09:14:27;95866.69;;;3.83;98.98
23677;BME280;31493;49.058;12.190;2024-03-08T09:16:55;95864.13;;;4.01;99.41
23677;BME280;31493;49.058;12.190;2024-03-08T09:19:22;95860.06;;;4.14;97.92
23677;BME280;31493;49.058;12.190;2024-03-08T09:21:51;95854.88;;;3.98;96.31
23677;BME280;31493;49.058;12.190;2024-03-08T09:24:18;95859.75;;;4.03;95.57
23677;BME280;31493;49.058;12.190;2024-03-08T09:26:46;95854.56;;;4.04;95.45
23677;BME280;31493;49.058;12.190;2024-03-08T09:29:13;95850.72;;;4.13;95.07
23677;BME280;31493;49.058;12.190;2024-03-08T09:31:40;95860.06;;;4.31;94.64
23677;BME280;31493;49.058;12.190;2024-03-08T09:34:08;95842.28;;;4.44;94.32
23677;BME280;31493;49.058;12.190;2024-03-08T09:36:35;95839.28;;;4.69;93.54
23677;BME280;31493;49.058;12.190;2024-03-08T09:39:02;95835.09;;;4.51;91.88
23677;BME280;31493;49.058;12.190;2024-03-08T09:41:33;95832.25;;;4.39;91.57
23677;BME280;31493;49.058;12.190;2024-03-08T09:44:00;95832.06;;;4.93;94.53
23677;BME280;31493;49.058;12.190;2024-03-08T09:46:27;95832.72;;;4.97;92.96
23677;BME280;31493;49.058;12.190;2024-03-08T09:48:54;95835.72;;;5.05;90.44
23677;BME280;31493;49.058;12.190;2024-03-08T09:51:27;95835.06;;;4.68;89.98
23677;BME280;31493;49.058;12.190;2024-03-08T09:53:55;95823.78;;;4.71;91.67
23677;BME280;31493;49.058;12.190;2024-03-08T09:56:22;95819.41;;;4.73;90.76
23677;BME280;31493;49.058;12.190;2024-03-08T09:58:50;95828.50;;;5.11;90.58
23677;BME280;31493;49.058;12.190;2024-03-08T10:01:45;95817.63;;;5.38;89.96
23677;BME280;31493;49.058;12.190;2024-03-08T10:04:12;95809.41;;;5.31;86.53
23677;BME280;31493;49.058;12.190;2024-03-08T10:06:41;95809.50;;;5.45;86.86
23677;BME280;31493;49.058;12.190;2024-03-08T10:09:09;95809.50;;;5.30;84.80
23677;BME280;31493;49.058;12.190;2024-03-08T10:11:37;95818.44;;;5.54;87.48
23677;BME280;31493;49.058;12.190;2024-03-08T10:14:04;95809.94;;;5.68;85.31
23677;BME280;31493;49.058;12.190;2024-03-08T10:16:31;95798.94;;;5.80;84.80
23677;BME280;31493;49.058;12.190;2024-03-08T10:18:59;95802.34;;;5.81;87.10
23677;BME280;31493;49.058;12.190;2024-03-08T10:21:27;95800.28;;;6.02;86.36
23677;BME280;31493;49.058;12.190;2024-03-08T10:23:56;95798.91;;;6.10;85.79
23677;BME280;31493;49.058;12.190;2024-03-08T10:26:24;95805.31;;;6.19;84.73
23677;BME280;31493;49.058;12.190;2024-03-08T10:28:52;95809.97;;;6.12;86.41
23677;BME280;31493;49.058;12.190;2024-03-08T10:31:19;95809.72;;;6.45;86.68
23677;BME280;31493;49.058;12.190;2024-03-08T10:33:47;95800.53;;;6.41;83.12
23677;BME280;31493;49.058;12.190;2024-03-08T10:36:15;95794.84;;;6.50;83.95
23677;BME280;31493;49.058;12.190;2024-03-08T10:38:43;95798.31;;;6.35;81.65
23677;BME280;31493;49.058;12.190;2024-03-08T10:41:14;95800.78;;;6.08;82.19
23677;BME280;31493;49.058;12.190;2024-03-08T10:44:10;95789.09;;;6.60;83.38
23677;BME280;31493;49.058;12.190;2024-03-08T10:46:51;95789.66;;;6.79;84.92
23677;BME280;31493;49.058;12.190;2024-03-08T10:49:25;95790.09;;;7.00;82.86
23677;BME280;31493;49.058;12.190;2024-03-08T10:51:56;95782.09;;;7.31;84.04
23677;BME280;31493;49.058;12.190;2024-03-08T10:54:25;95779.44;;;7.19;83.65
23677;BME280;31493;49.058;12.190;2024-03-08T10:56:54;95771.91;;;7.70;85.14
23677;BME280;31493;49.058;12.190;2024-03-08T10:59:22;95770.97;;;7.71;79.00
23677;BME280;31493;49.058;12.190;2024-03-08T11:02:37;95768.47;;;7.56;80.55
23677;BME280;31493;49.058;12.190;2024-03-08T11:05:09;95769.75;;;7.37;80.04
23677;BME280;31493;49.058;12.190;2024-03-08T11:07:42;95762.66;;;7.80;82.78
23677;BME280;31493;49.058;12.190;2024-03-08T11:10:19;95766.34;;;7.76;77.97
23677;BME280;31493;49.058;12.190;2024-03-08T11:12:46;95752.25;;;8.20;77.49
23677;BME280;31493;49.058;12.190;2024-03-08T11:15:14;95747.06;;;8.07;77.58
23677;BME280;31493;49.058;12.190;2024-03-08T11:17:47;95742.03;;;8.18;75.81
23677;BME280;31493;49.058;12.190;2024-03-08T11:20:15;95734.88;;;8.47;76.10
23677;BME280;31493;49.058;12.190;2024-03-08T11:22:48;95732.09;;;7.99;72.95
23677;BME280;31493;49.058;12.190;2024-03-08T11:25:33;95724.94;;;8.54;76.21
23677;BME280;31493;49.058;12.190;2024-03-08T11:28:10;95723.81;;;7.81;72.28
23677;BME280;31493;49.058;12.190;2024-03-08T11:30:43;95722.72;;;8.73;74.83
23677;BME280;31493;49.058;12.190;2024-03-08T11:33:16;95712.25;;;9.11;72.63
23677;BME280;31493;49.058;12.190;2024-03-08T11:35:43;95706.75;;;9.16;68.48
23677;BME280;31493;49.058;12.190;2024-03-08T11:38:12;95710.59;;;8.37;67.16
23677;BME280;31493;49.058;12.190;2024-03-08T11:40:40;95698.56;;;9.22;68.96
23677;BME280;31493;49.058;12.190;2024-03-08T11:43:08;95713.16;;;9.47;67.87
23677;BME280;31493;49.058;12.190;2024-03-08T11:45:35;95698.72;;;10.02;69.85
23677;BME280;31493;49.058;12.190;2024-03-08T11:48:03;95690.31;;;9.76;62.76
23677;BME280;31493;49.058;12.190;2024-03-08T11:50:32;95702.34;;;9.05;64.36
23677;BME280;31493;49.058;12.190;2024-03-08T11:53:03;95692.13;;;10.32;62.52
23677;BME280;31493;49.058;12.190;2024-03-08T11:55:31;95679.88;;;10.45;59.60
23677;BME280;31493;49.058;12.190;2024-03-08T11:58:02;95674.00;;;10.54;61.29
23677;BME280;31493;49.058;12.190;2024-03-08T12:00:30;95676.75;;;9.72;60.26
23677;BME280;31493;49.058;12.190;2024-03-08T12:03:02;95674.47;;;10.48;59.18
23677;BME280;31493;49.058;12.190;2024-03-08T12:05:29;95672.44;;;9.84;58.42
23677;BME280;31493;49.058;12.190;2024-03-08T12:07:58;95673.47;;;9.70;58.84
23677;BME280;31493;49.058;12.190;2024-03-08T12:10:25;95656.75;;;9.28;60.72
23677;BME280;31493;49.058;12.190;2024-03-08T12:12:55;95662.84;;;8.79;62.31
23677;BME280;31493;49.058;12.190;2024-03-08T12:15:25;95652.78;;;10.26;60.11
23677;BME280;31493;49.058;12.190;2024-03-08T12:17:54;95647.19;;;9.53;58.20
23677;BME280;31493;49.058;12.190;2024-03-08T12:20:23;95655.53;;;8.73;61.18
23677;BME280;31493;49.058;12.190;2024-03-08T12:22:51;95660.75;;;9.08;60.95
23677;BME280;31493;49.058;12.190;2024-03-08T12:25:20;95646.19;;;8.83;61.06
23677;BME280;31493;49.058;12.190;2024-03-08T12:27:49;95635.25;;;10.30;62.53
23677;BME280;31493;49.058;12.190;2024-03-08T12:30:20;95630.41;;;10.25;60.02
23677;BME280;31493;49.058;12.190;2024-03-08T12:32:56;95625.50;;;10.11;58.05
23677;BME280;31493;49.058;12.190;2024-03-08T12:35:24;95641.22;;;9.04;60.45
23677;BME280;31493;49.058;12.190;2024-03-08T12:37:53;95639.81;;;9.70;59.08
23677;BME280;31493;49.058;12.190;2024-03-08T12:40:27;95625.81;;;9.84;59.21
23677;BME280;31493;49.058;12.190;2024-03-08T12:42:54;95627.13;;;10.01;56.88
23677;BME280;31493;49.058;12.190;2024-03-08T12:45:22;95627.19;;;8.72;58.50
23677;BME280;31493;49.058;12.190;2024-03-08T12:47:53;95626.91;;;8.87;58.52
23677;BME280;31493;49.058;12.190;2024-03-08T12:50:20;95620.03;;;8.99;58.50
23677;BME280;31493;49.058;12.190;2024-03-08T12:52:47;95626.75;;;9.83;56.17
23677;BME280;31493;49.058;12.190;2024-03-08T12:55:15;95616.09;;;8.82;57.04